sensor_id;sensor_type;location;lat;lon;timestamp;pressure;altitude;pressure_sealevel;temperature;humidity
63883;BME280;50047;50.596;30.466;2022-07-01T00:01:45;99473.59;;;25.76;49.85
63883;BME280;50047;50.596;30.466;2022-07-01T00:04:15;99473.17;;;25.66;50.00
63883;BME280;50047;50.596;30.466;2022-07-01T00:06:42;99473.05;;;25.69;49.71
63883;BME280;50047;50.596;30.466;2022-07-01T00:09:10;99476.75;;;25.72;49.73
63883;BME280;50047;50.596;30.466;2022-07-01T00:11:37;99475.03;;;25.61;50.06
63883;BME280;50047;50.596;30.466;2022-07-01T00:14:04;99472.56;;;25.82;50.96
63883;BME280;50047;50.596;30.466;2022-07-01T00:16:32;99470.38;;;26.17;50.79
63883;BME280;50047;50.596;30.466;2022-07-01T00:18:59;99472.87;;;26.33;50.25
63883;BME280;50047;50.596;30.466;2022-07-01T00:21:27;99476.45;;;26.35;49.63
63883;BME280;50047;50.596;30.466;2022-07-01T00:23:54;99478.94;;;26.34;49.31
63883;BME280;50047;50.596;30.466;2022-07-01T00:26:21;99476.79;;;26.29;49.18
63883;BME280;50047;50.596;30.466;2022-07-01T00:28:48;99470.68;;;26.12;49.30
63883;BME280;50047;50.596;30.466;2022-07-01T00:31:15;99470.55;;;25.99;49.48
63883;BME280;50047;50.596;30.466;2022-07-01T00:33:43;99467.12;;;25.88;49.58
63883;BME280;50047;50.596;30.466;2022-07-01T00:36:10;99468.54;;;25.79;49.84
63883;BME280;50047;50.596;30.466;2022-07-01T00:38:37;99464.71;;;25.68;49.98
63883;BME280;50047;50.596;30.466;2022-07-01T00:41:04;99460.08;;;25.54;50.25
63883;BME280;50047;50.596;30.466;2022-07-01T00:43:36;99455.01;;;25.43;50.60
63883;BME280;50047;50.596;30.466;2022-07-01T00:46:21;99454.27;;;25.30;51.38
63883;BME280;50047;50.596;30.466;2022-07-01T00:48:50;99452.94;;;25.63;52.17
63883;BME280;50047;50.596;30.466;2022-07-01T00:51:18;99457.77;;;26.07;51.61
63883;BME280;50047;50.596;30.466;2022-07-01T00:53:47;99460.90;;;26.29;50.90
63883;BME280;50047;50.596;30.466;2022-07-01T00:56:14;99463.77;;;26.32;50.38
63883;BME280;50047;50.596;30.466;2022-07-01T00:58:42;99463.16;;;26.23;50.24
63883;BME280;50047;50.596;30.466;2022-07-01T01:01:10;99461.90;;;26.09;50.34
63883;BME280;50047;50.596;30.466;2022-07-01T01:03:38;99459.12;;;25.97;50.28
63883;BME280;50047;50.596;30.466;2022-07-01T01:06:06;99461.16;;;25.85;50.45
63883;BME280;50047;50.596;30.466;2022-07-01T01:08:33;99460.64;;;25.74;50.26
63883;BME280;50047;50.596;30.466;2022-07-01T01:11:00;99461.79;;;25.60;50.30
63883;BME280;50047;50.596;30.466;2022-07-01T01:13:28;99461.23;;;25.54;50.52
63883;BME280;50047;50.596;30.466;2022-07-01T01:15:55;99456.17;;;25.43;50.73
63883;BME280;50047;50.596;30.466;2022-07-01T01:18:22;99452.13;;;25.37;51.20
63883;BME280;50047;50.596;30.466;2022-07-01T01:20:52;99454.20;;;25.24;51.51
63883;BME280;50047;50.596;30.466;2022-07-01T01:23:19;99455.19;;;25.46;52.50
63883;BME280;50047;50.596;30.466;2022-07-01T01:25:47;99458.59;;;25.83;51.93
63883;BME280;50047;50.596;30.466;2022-07-01T01:28:15;99456.73;;;26.00;51.27
63883;BME280;50047;50.596;30.466;2022-07-01T01:30:43;99461.75;;;26.00;51.01
63883;BME280;50047;50.596;30.466;2022-07-01T01:33:10;99466.54;;;25.96;50.73
63883;BME280;50047;50.596;30.466;2022-07-01T01:35:38;99468.93;;;25.90;50.63
63883;BME280;50047;50.596;30.466;2022-07-01T01:38:06;99477.69;;;25.79;50.76
63883;BME280;50047;50.596;30.466;2022-07-01T01:40:33;99489.38;;;25.57;51.38
63883;BME280;50047;50.596;30.466;2022-07-01T01:43:00;99492.16;;;25.35;52.34
63883;BME280;50047;50.596;30.466;2022-07-01T01:45:28;99493.84;;;25.17;52.46
63883;BME280;50047;50.596;30.466;2022-07-01T01:47:55;99501.40;;;25.14;52.58
63883;BME280;50047;50.596;30.466;2022-07-01T01:50:22;99507.00;;;25.36;53.86
63883;BME280;50047;50.596;30.466;2022-07-01T01:52:50;99502.87;;;25.75;53.68
63883;BME280;50047;50.596;30.466;2022-07-01T01:55:17;99504.83;;;25.96;53.54
63883;BME280;50047;50.596;30.466;2022-07-01T01:57:44;99497.55;;;26.01;53.27
63883;BME280;50047;50.596;30.466;2022-07-01T02:00:12;99501.32;;;26.04;52.81
63883;BME280;50047;50.596;30.466;2022-07-01T02:02:40;99497.20;;;26.02;53.43
63883;BME280;50047;50.596;30.466;2022-07-01T02:05:10;99497.95;;;25.96;53.33
63883;BME280;50047;50.596;30.466;2022-07-01T02:07:38;99497.45;;;25.86;53.40
63883;BME280;50047;50.596;30.466;2022-07-01T02:10:07;99495.38;;;25.76;53.46
63883;BME280;50047;50.596;30.466;2022-07-01T02:12:34;99501.27;;;26.04;54.09
63883;BME280;50047;50.596;30.466;2022-07-01T02:15:01;99497.88;;;26.46;53.42
63883;BME280;50047;50.596;30.466;2022-07-01T02:17:28;99496.95;;;26.73;52.19
63883;BME280;50047;50.596;30.466;2022-07-01T02:19:56;99496.68;;;26.95;51.16
63883;BME280;50047;50.596;30.466;2022-07-01T02:22:23;99492.96;;;26.99;50.39
63883;BME280;50047;50.596;30.466;2022-07-01T02:24:50;99493.36;;;26.88;50.10
63883;BME280;50047;50.596;30.466;2022-07-01T02:27:17;99494.87;;;26.69;50.22
63883;BME280;50047;50.596;30.466;2022-07-01T02:29:46;99493.63;;;26.50;50.33
63883;BME280;50047;50.596;30.466;2022-07-01T02:32:13;99490.23;;;26.39;50.37
63883;BME280;50047;50.596;30.466;2022-07-01T02:34:40;99493.45;;;26.27;50.46
63883;BME280;50047;50.596;30.466;2022-07-01T02:37:08;99492.45;;;26.16;50.41
63883;BME280;50047;50.596;30.466;2022-07-01T02:39:35;99495.49;;;26.11;50.36
63883;BME280;50047;50.596;30.466;2022-07-01T02:42:03;99496.62;;;26.14;50.24
63883;BME280;50047;50.596;30.466;2022-07-01T02:44:49;99495.63;;;26.46;49.67
63883;BME280;50047;50.596;30.466;2022-07-01T02:47:16;99498.88;;;26.53;49.64
63883;BME280;50047;50.596;30.466;2022-07-01T02:49:43;99499.71;;;26.87;50.28
63883;BME280;50047;50.596;30.466;2022-07-01T02:52:10;99499.26;;;27.29;49.51
63883;BME280;50047;50.596;30.466;2022-07-01T02:54:38;99504.09;;;27.58;48.65
63883;BME280;50047;50.596;30.466;2022-07-01T02:57:06;99505.75;;;27.64;48.17
63883;BME280;50047;50.596;30.466;2022-07-01T02:59:33;99506.02;;;27.54;48.37
63883;BME280;50047;50.596;30.466;2022-07-01T03:02:00;99507.99;;;27.46;48.00
63883;BME280;50047;50.596;30.466;2022-07-01T03:04:28;99509.98;;;27.31;47.94
63883;BME280;50047;50.596;30.466;2022-07-01T03:06:55;99512.48;;;27.28;48.08
63883;BME280;50047;50.596;30.466;2022-07-01T03:09:22;99510.37;;;27.23;47.79
63883;BME280;50047;50.596;30.466;2022-07-01T03:11:50;99514.79;;;27.03;48.51
63883;BME280;50047;50.596;30.466;2022-07-01T03:14:17;99515.93;;;26.78;49.31
63883;BME280;50047;50.596;30.466;2022-07-01T03:16:44;99519.38;;;26.58;49.69
63883;BME280;50047;50.596;30.466;2022-07-01T03:19:14;99518.73;;;26.45;50.10
63883;BME280;50047;50.596;30.466;2022-07-01T03:21:42;99518.97;;;26.55;50.31
63883;BME280;50047;50.596;30.466;2022-07-01T03:24:09;99519.41;;;26.73;49.95
63883;BME280;50047;50.596;30.466;2022-07-01T03:26:36;99517.70;;;27.26;48.68
63883;BME280;50047;50.596;30.466;2022-07-01T03:29:04;99516.28;;;27.59;47.92
63883;BME280;50047;50.596;30.466;2022-07-01T03:31:32;99518.00;;;27.62;48.13
63883;BME280;50047;50.596;30.466;2022-07-01T03:33:59;99517.79;;;27.57;47.97
63883;BME280;50047;50.596;30.466;2022-07-01T03:36:26;99515.66;;;27.53;47.82
63883;BME280;50047;50.596;30.466;2022-07-01T03:38:53;99512.17;;;27.49;47.90
63883;BME280;50047;50.596;30.466;2022-07-01T03:41:21;99510.36;;;27.55;47.78
63883;BME280;50047;50.596;30.466;2022-07-01T03:43:48;99515.96;;;27.59;47.64
63883;BME280;50047;50.596;30.466;2022-07-01T03:46:15;99513.66;;;27.55;47.70
63883;BME280;50047;50.596;30.466;2022-07-01T03:48:42;99514.96;;;27.51;47.66
63883;BME280;50047;50.596;30.466;2022-07-01T03:51:09;99518.29;;;27.58;47.70
63883;BME280;50047;50.596;30.466;2022-07-01T03:53:37;99516.95;;;27.66;47.49
63883;BME280;50047;50.596;30.466;2022-07-01T03:56:23;99519.81;;;27.79;47.24
63883;BME280;50047;50.596;30.466;2022-07-01T03:58:50;99519.10;;;28.00;46.97
63883;BME280;50047;50.596;30.466;2022-07-01T04:01:17;99516.41;;;28.75;45.88
63883;BME280;50047;50.596;30.466;2022-07-01T04:03:44;99518.21;;;29.54;44.80
63883;BME280;50047;50.596;30.466;2022-07-01T04:06:12;99518.41;;;30.33;43.83
63883;BME280;50047;50.596;30.466;2022-07-01T04:08:40;99522.48;;;30.60;43.49
63883;BME280;50047;50.596;30.466;2022-07-01T04:11:08;99524.55;;;31.10;42.96
63883;BME280;50047;50.596;30.466;2022-07-01T04:13:36;99525.67;;;32.49;40.96
63883;BME280;50047;50.596;30.466;2022-07-01T04:16:06;99528.21;;;33.90;38.69
63883;BME280;50047;50.596;30.466;2022-07-01T04:18:34;99530.96;;;35.13;37.46
63883;BME280;50047;50.596;30.466;2022-07-01T04:21:03;99535.89;;;36.13;35.85
63883;BME280;50047;50.596;30.466;2022-07-01T04:23:49;99531.79;;;36.41;35.59
63883;BME280;50047;50.596;30.466;2022-07-01T04:26:16;99531.50;;;36.06;35.72
63883;BME280;50047;50.596;30.466;2022-07-01T04:29:03;99530.25;;;36.23;34.93
63883;BME280;50047;50.596;30.466;2022-07-01T04:31:30;99531.98;;;37.31;33.88
63883;BME280;50047;50.596;30.466;2022-07-01T04:33:58;99533.67;;;38.37;32.50
63883;BME280;50047;50.596;30.466;2022-07-01T04:36:26;99531.65;;;39.38;31.40
63883;BME280;50047;50.596;30.466;2022-07-01T04:38:53;99529.63;;;40.18;30.42
63883;BME280;50047;50.596;30.466;2022-07-01T04:41:21;99531.17;;;40.83;29.18
63883;BME280;50047;50.596;30.466;2022-07-01T04:44:07;99532.36;;;41.49;28.68
63883;BME280;50047;50.596;30.466;2022-07-01T04:46:35;99532.38;;;41.68;28.28
63883;BME280;50047;50.596;30.466;2022-07-01T04:49:03;99526.11;;;41.73;27.43
63883;BME280;50047;50.596;30.466;2022-07-01T04:51:30;99528.14;;;41.18;28.07
63883;BME280;50047;50.596;30.466;2022-07-01T04:54:03;99527.46;;;41.99;27.28
63883;BME280;50047;50.596;30.466;2022-07-01T04:56:32;99529.30;;;43.12;26.41
63883;BME280;50047;50.596;30.466;2022-07-01T04:59:02;99531.13;;;43.93;25.41
63883;BME280;50047;50.596;30.466;2022-07-01T05:01:29;99531.38;;;44.57;24.67
63883;BME280;50047;50.596;30.466;2022-07-01T05:03:58;99534.98;;;45.25;23.81
63883;BME280;50047;50.596;30.466;2022-07-01T05:06:25;99540.28;;;45.58;22.90
63883;BME280;50047;50.596;30.466;2022-07-01T05:08:53;99539.52;;;46.10;22.63
63883;BME280;50047;50.596;30.466;2022-07-01T05:11:20;99544.89;;;46.70;21.78
63883;BME280;50047;50.596;30.466;2022-07-01T05:13:47;99540.64;;;46.97;21.76
63883;BME280;50047;50.596;30.466;2022-07-01T05:16:14;99540.95;;;47.54;21.28
63883;BME280;50047;50.596;30.466;2022-07-01T05:18:42;99545.09;;;48.14;20.31
63883;BME280;50047;50.596;30.466;2022-07-01T05:21:28;99544.05;;;48.57;19.97
63883;BME280;50047;50.596;30.466;2022-07-01T05:24:14;99544.45;;;49.15;19.77
63883;BME280;50047;50.596;30.466;2022-07-01T05:26:41;99546.16;;;49.47;18.92
63883;BME280;50047;50.596;30.466;2022-07-01T05:29:10;99546.63;;;49.83;18.74
63883;BME280;50047;50.596;30.466;2022-07-01T05:31:37;99548.19;;;50.25;18.56
63883;BME280;50047;50.596;30.466;2022-07-01T05:34:05;99545.13;;;50.69;17.97
63883;BME280;50047;50.596;30.466;2022-07-01T05:36:34;99549.36;;;50.85;17.57
63883;BME280;50047;50.596;30.466;2022-07-01T05:39:01;99551.67;;;50.41;17.85
63883;BME280;50047;50.596;30.466;2022-07-01T05:41:29;99549.25;;;50.17;17.97
63883;BME280;50047;50.596;30.466;2022-07-01T05:43:56;99545.03;;;49.79;17.97
63883;BME280;50047;50.596;30.466;2022-07-01T05:46:23;99547.29;;;49.53;18.51
63883;BME280;50047;50.596;30.466;2022-07-01T05:48:51;99541.97;;;49.52;18.53
63883;BME280;50047;50.596;30.466;2022-07-01T05:51:18;99544.16;;;49.63;18.37
63883;BME280;50047;50.596;30.466;2022-07-01T05:53:45;99543.71;;;49.80;18.12
63883;BME280;50047;50.596;30.466;2022-07-01T05:56:14;99542.66;;;49.64;18.29
63883;BME280;50047;50.596;30.466;2022-07-01T05:58:42;99542.43;;;49.38;18.53
63883;BME280;50047;50.596;30.466;2022-07-01T06:01:09;99539.91;;;49.47;18.27
63883;BME280;50047;50.596;30.466;2022-07-01T06:03:36;99539.43;;;49.66;18.29
63883;BME280;50047;50.596;30.466;2022-07-01T06:06:04;99544.23;;;49.80;18.08
63883;BME280;50047;50.596;30.466;2022-07-01T06:08:32;99543.83;;;49.66;18.23
63883;BME280;50047;50.596;30.466;2022-07-01T06:11:00;99540.30;;;49.79;17.87
63883;BME280;50047;50.596;30.466;2022-07-01T06:13:28;99540.59;;;49.69;18.17
63883;BME280;50047;50.596;30.466;2022-07-01T06:15:56;99541.03;;;49.82;18.21
63883;BME280;50047;50.596;30.466;2022-07-01T06:18:25;99537.00;;;50.02;17.96
63883;BME280;50047;50.596;30.466;2022-07-01T06:20:53;99539.45;;;49.93;17.98
63883;BME280;50047;50.596;30.466;2022-07-01T06:23:20;99535.98;;;49.44;18.29
63883;BME280;50047;50.596;30.466;2022-07-01T06:25:47;99535.67;;;49.61;18.27
63883;BME280;50047;50.596;30.466;2022-07-01T06:28:15;99534.21;;;49.84;18.02
63883;BME280;50047;50.596;30.466;2022-07-01T06:30:42;99532.61;;;50.01;17.93
63883;BME280;50047;50.596;30.466;2022-07-01T06:33:12;99534.34;;;50.04;17.75
63883;BME280;50047;50.596;30.466;2022-07-01T06:35:39;99530.63;;;49.99;17.73
63883;BME280;50047;50.596;30.466;2022-07-01T06:38:07;99527.94;;;49.87;17.70
63883;BME280;50047;50.596;30.466;2022-07-01T06:40:34;99525.34;;;49.21;17.92
63883;BME280;50047;50.596;30.466;2022-07-01T06:43:02;99524.24;;;48.61;18.11
63883;BME280;50047;50.596;30.466;2022-07-01T06:45:29;99522.45;;;48.32;18.77
63883;BME280;50047;50.596;30.466;2022-07-01T06:47:57;99518.36;;;48.57;18.85
63883;BME280;50047;50.596;30.466;2022-07-01T06:50:24;99520.05;;;48.90;18.61
63883;BME280;50047;50.596;30.466;2022-07-01T06:52:51;99515.55;;;49.18;18.18
63883;BME280;50047;50.596;30.466;2022-07-01T06:55:18;99519.42;;;49.26;18.08
63883;BME280;50047;50.596;30.466;2022-07-01T06:57:46;99512.85;;;49.23;18.11
63883;BME280;50047;50.596;30.466;2022-07-01T07:00:13;99511.45;;;49.40;17.75
63883;BME280;50047;50.596;30.466;2022-07-01T07:02:41;99509.62;;;49.38;17.67
63883;BME280;50047;50.596;30.466;2022-07-01T07:05:08;99514.94;;;49.52;17.75
63883;BME280;50047;50.596;30.466;2022-07-01T07:07:37;99522.18;;;48.69;18.95
63883;BME280;50047;50.596;30.466;2022-07-01T07:10:05;99520.88;;;47.54;20.31
63883;BME280;50047;50.596;30.466;2022-07-01T07:12:32;99528.96;;;46.37;21.86
63883;BME280;50047;50.596;30.466;2022-07-01T07:14:59;99525.67;;;45.31;23.24
63883;BME280;50047;50.596;30.466;2022-07-01T07:17:27;99525.85;;;43.83;24.58
63883;BME280;50047;50.596;30.466;2022-07-01T07:19:54;99531.77;;;42.14;26.29
63883;BME280;50047;50.596;30.466;2022-07-01T07:22:22;99528.89;;;40.76;28.17
63883;BME280;50047;50.596;30.466;2022-07-01T07:24:50;99529.83;;;39.48;29.58
63883;BME280;50047;50.596;30.466;2022-07-01T07:27:17;99531.66;;;38.28;31.45
63883;BME280;50047;50.596;30.466;2022-07-01T07:29:44;99534.70;;;37.16;32.91
63883;BME280;50047;50.596;30.466;2022-07-01T07:32:12;99530.80;;;36.24;34.41
63883;BME280;50047;50.596;30.466;2022-07-01T07:34:39;99532.02;;;35.54;35.35
63883;BME280;50047;50.596;30.466;2022-07-01T07:37:08;99526.91;;;34.88;36.41
63883;BME280;50047;50.596;30.466;2022-07-01T07:39:35;99527.71;;;34.18;37.40
63883;BME280;50047;50.596;30.466;2022-07-01T07:42:03;99524.48;;;33.79;38.03
63883;BME280;50047;50.596;30.466;2022-07-01T07:44:31;99524.02;;;33.55;38.02
63883;BME280;50047;50.596;30.466;2022-07-01T07:46:58;99521.33;;;33.06;38.61
63883;BME280;50047;50.596;30.466;2022-07-01T07:49:26;99514.27;;;32.80;39.26
63883;BME280;50047;50.596;30.466;2022-07-01T07:51:53;99520.22;;;32.49;39.01
63883;BME280;50047;50.596;30.466;2022-07-01T07:54:21;99522.70;;;32.31;39.06
63883;BME280;50047;50.596;30.466;2022-07-01T07:56:48;99517.83;;;32.11;40.02
63883;BME280;50047;50.596;30.466;2022-07-01T07:59:15;99509.21;;;31.86;39.61
63883;BME280;50047;50.596;30.466;2022-07-01T08:01:42;99516.76;;;31.74;39.62
63883;BME280;50047;50.596;30.466;2022-07-01T08:04:10;99517.88;;;31.56;40.22
63883;BME280;50047;50.596;30.466;2022-07-01T08:06:37;99506.86;;;31.46;40.17
63883;BME280;50047;50.596;30.466;2022-07-01T08:09:05;99514.92;;;31.28;39.78
63883;BME280;50047;50.596;30.466;2022-07-01T08:11:33;99515.64;;;31.10;39.92
63883;BME280;50047;50.596;30.466;2022-07-01T08:14:00;99510.96;;;30.92;39.61
63883;BME280;50047;50.596;30.466;2022-07-01T08:16:27;99508.21;;;30.81;39.93
63883;BME280;50047;50.596;30.466;2022-07-01T08:18:54;99513.56;;;30.75;39.55
63883;BME280;50047;50.596;30.466;2022-07-01T08:21:23;99508.89;;;30.68;39.65
63883;BME280;50047;50.596;30.466;2022-07-01T08:23:51;99519.02;;;30.60;38.46
63883;BME280;50047;50.596;30.466;2022-07-01T08:26:18;99522.65;;;30.46;38.93
63883;BME280;50047;50.596;30.466;2022-07-01T08:28:45;99514.63;;;30.43;38.91
63883;BME280;50047;50.596;30.466;2022-07-01T08:31:13;99516.66;;;30.37;38.89
63883;BME280;50047;50.596;30.466;2022-07-01T08:33:41;99515.05;;;30.35;39.09
63883;BME280;50047;50.596;30.466;2022-07-01T08:36:10;99514.12;;;30.31;39.69
63883;BME280;50047;50.596;30.466;2022-07-01T08:38:37;99511.36;;;30.41;40.01
63883;BME280;50047;50.596;30.466;2022-07-01T08:41:05;99511.02;;;30.39;40.41
63883;BME280;50047;50.596;30.466;2022-07-01T08:43:34;99520.84;;;30.32;40.66
63883;BME280;50047;50.596;30.466;2022-07-01T08:46:02;99522.82;;;30.23;40.76
63883;BME280;50047;50.596;30.466;2022-07-01T08:48:30;99521.84;;;30.12;39.92
63883;BME280;50047;50.596;30.466;2022-07-01T08:50:58;99528.00;;;30.13;39.92
63883;BME280;50047;50.596;30.466;2022-07-01T08:53:25;99526.30;;;30.06;39.57
63883;BME280;50047;50.596;30.466;2022-07-01T08:55:52;99525.64;;;29.99;39.53
63883;BME280;50047;50.596;30.466;2022-07-01T08:58:38;99519.71;;;29.99;40.29
63883;BME280;50047;50.596;30.466;2022-07-01T09:01:20;99512.81;;;30.00;41.33
63883;BME280;50047;50.596;30.466;2022-07-01T09:03:50;99523.19;;;29.95;40.38
63883;BME280;50047;50.596;30.466;2022-07-01T09:06:29;99517.40;;;29.93;40.48
63883;BME280;50047;50.596;30.466;2022-07-01T09:09:16;99513.44;;;29.84;40.66
63883;BME280;50047;50.596;30.466;2022-07-01T09:11:48;99511.04;;;29.87;40.82
63883;BME280;50047;50.596;30.466;2022-07-01T09:14:27;99513.30;;;29.93;41.14
63883;BME280;50047;50.596;30.466;2022-07-01T09:16:57;99514.09;;;29.93;40.23
63883;BME280;50047;50.596;30.466;2022-07-01T09:19:30;99513.14;;;29.89;40.46
63883;BME280;50047;50.596;30.466;2022-07-01T09:22:00;99511.68;;;29.90;40.82
63883;BME280;50047;50.596;30.466;2022-07-01T09:24:36;99503.20;;;29.92;40.00
63883;BME280;50047;50.596;30.466;2022-07-01T09:27:08;99516.55;;;29.90;39.72
63883;BME280;50047;50.596;30.466;2022-07-01T09:32:14;99504.14;;;29.84;40.31
63883;BME280;50047;50.596;30.466;2022-07-01T09:34:46;99492.47;;;29.84;40.13
63883;BME280;50047;50.596;30.466;2022-07-01T09:37:16;99494.43;;;29.87;39.68
63883;BME280;50047;50.596;30.466;2022-07-01T09:39:50;99498.91;;;29.77;38.87
63883;BME280;50047;50.596;30.466;2022-07-01T09:42:19;99501.70;;;29.75;38.84
63883;BME280;50047;50.596;30.466;2022-07-01T09:45:04;99497.10;;;29.78;38.78
63883;BME280;50047;50.596;30.466;2022-07-01T09:47:41;99502.23;;;29.86;37.98
63883;BME280;50047;50.596;30.466;2022-07-01T09:50:11;99495.95;;;29.84;38.39
63883;BME280;50047;50.596;30.466;2022-07-01T09:52:39;99506.06;;;29.82;37.68
63883;BME280;50047;50.596;30.466;2022-07-01T09:55:07;99504.34;;;29.94;37.68
63883;BME280;50047;50.596;30.466;2022-07-01T09:57:35;99502.26;;;29.88;37.64
63883;BME280;50047;50.596;30.466;2022-07-01T10:00:06;99502.06;;;29.86;37.72
63883;BME280;50047;50.596;30.466;2022-07-01T10:02:34;99506.32;;;29.83;37.58
63883;BME280;50047;50.596;30.466;2022-07-01T10:05:07;99506.55;;;29.86;37.46
63883;BME280;50047;50.596;30.466;2022-07-01T10:13:37;99508.39;;;29.92;37.66
63883;BME280;50047;50.596;30.466;2022-07-01T10:16:04;99497.18;;;29.94;37.61
63883;BME280;50047;50.596;30.466;2022-07-01T10:18:32;99497.83;;;29.92;37.22
63883;BME280;50047;50.596;30.466;2022-07-01T10:20:59;99497.16;;;29.97;37.19
63883;BME280;50047;50.596;30.466;2022-07-01T10:23:36;99491.75;;;29.95;37.48
63883;BME280;50047;50.596;30.466;2022-07-01T10:26:05;99497.16;;;29.94;37.25
63883;BME280;50047;50.596;30.466;2022-07-01T10:28:42;99482.30;;;29.96;37.87
63883;BME280;50047;50.596;30.466;2022-07-01T10:31:16;99493.41;;;29.99;37.18
63883;BME280;50047;50.596;30.466;2022-07-01T10:33:55;99482.67;;;30.03;38.16
63883;BME280;50047;50.596;30.466;2022-07-01T10:36:25;99487.70;;;30.02;37.87
63883;BME280;50047;50.596;30.466;2022-07-01T10:41:54;99489.73;;;29.96;35.98
63883;BME280;50047;50.596;30.466;2022-07-01T10:47:29;99477.14;;;29.93;36.03
63883;BME280;50047;50.596;30.466;2022-07-01T10:49:59;99479.51;;;30.02;35.71
63883;BME280;50047;50.596;30.466;2022-07-01T10:52:26;99471.90;;;30.04;35.19
63883;BME280;50047;50.596;30.466;2022-07-01T10:54:56;99459.79;;;30.10;36.28
63883;BME280;50047;50.596;30.466;2022-07-01T11:02:36;99470.56;;;30.09;35.33
63883;BME280;50047;50.596;30.466;2022-07-01T11:05:08;99469.77;;;30.09;34.93
63883;BME280;50047;50.596;30.466;2022-07-01T11:07:39;99467.36;;;30.06;35.14
63883;BME280;50047;50.596;30.466;2022-07-01T11:10:10;99468.75;;;29.99;34.60
63883;BME280;50047;50.596;30.466;2022-07-01T11:12:38;99469.61;;;29.95;34.94
63883;BME280;50047;50.596;30.466;2022-07-01T11:15:07;99470.89;;;29.95;35.38
63883;BME280;50047;50.596;30.466;2022-07-01T11:17:35;99469.82;;;29.90;35.92
63883;BME280;50047;50.596;30.466;2022-07-01T11:20:02;99466.60;;;29.91;34.88
63883;BME280;50047;50.596;30.466;2022-07-01T11:22:32;99466.94;;;29.95;34.11
63883;BME280;50047;50.596;30.466;2022-07-01T11:25:08;99466.86;;;29.95;34.51
63883;BME280;50047;50.596;30.466;2022-07-01T11:27:37;99467.81;;;29.96;33.53
63883;BME280;50047;50.596;30.466;2022-07-01T11:30:10;99465.02;;;30.03;34.05
63883;BME280;50047;50.596;30.466;2022-07-01T11:32:57;99463.34;;;30.01;33.36
63883;BME280;50047;50.596;30.466;2022-07-01T11:35:26;99465.43;;;29.95;33.74
63883;BME280;50047;50.596;30.466;2022-07-01T11:41:01;99459.14;;;29.95;33.36
63883;BME280;50047;50.596;30.466;2022-07-01T11:43:33;99468.20;;;29.95;32.84
63883;BME280;50047;50.596;30.466;2022-07-01T11:46:03;99468.66;;;29.94;32.80
63883;BME280;50047;50.596;30.466;2022-07-01T11:51:06;99463.39;;;29.91;32.38
63883;BME280;50047;50.596;30.466;2022-07-01T11:53:34;99453.85;;;29.95;32.50
63883;BME280;50047;50.596;30.466;2022-07-01T11:56:02;99458.37;;;30.01;32.32
63883;BME280;50047;50.596;30.466;2022-07-01T11:58:49;99456.19;;;29.98;32.68
63883;BME280;50047;50.596;30.466;2022-07-01T12:01:37;99455.05;;;30.05;32.90
63883;BME280;50047;50.596;30.466;2022-07-01T12:04:08;99453.59;;;30.08;31.98
63883;BME280;50047;50.596;30.466;2022-07-01T12:06:37;99444.59;;;30.07;32.08
63883;BME280;50047;50.596;30.466;2022-07-01T12:09:06;99450.59;;;30.12;33.76
63883;BME280;50047;50.596;30.466;2022-07-01T12:11:33;99438.77;;;30.17;34.18
63883;BME280;50047;50.596;30.466;2022-07-01T12:14:05;99439.14;;;30.26;33.53
63883;BME280;50047;50.596;30.466;2022-07-01T12:16:39;99434.94;;;30.35;34.03
63883;BME280;50047;50.596;30.466;2022-07-01T12:19:07;99435.95;;;30.38;33.88
63883;BME280;50047;50.596;30.466;2022-07-01T12:21:52;99444.90;;;30.42;33.26
63883;BME280;50047;50.596;30.466;2022-07-01T12:24:20;99442.59;;;30.41;32.78
63883;BME280;50047;50.596;30.466;2022-07-01T12:29:27;99438.59;;;30.36;34.14
63883;BME280;50047;50.596;30.466;2022-07-01T12:32:01;99437.34;;;30.32;34.08
63883;BME280;50047;50.596;30.466;2022-07-01T12:34:49;99434.60;;;30.28;34.26
63883;BME280;50047;50.596;30.466;2022-07-01T12:37:32;99431.38;;;30.28;35.66
63883;BME280;50047;50.596;30.466;2022-07-01T12:40:08;99437.41;;;30.30;35.78
63883;BME280;50047;50.596;30.466;2022-07-01T12:42:38;99420.92;;;30.36;35.13
63883;BME280;50047;50.596;30.466;2022-07-01T12:45:14;99424.46;;;30.35;33.87
63883;BME280;50047;50.596;30.466;2022-07-01T12:47:46;99420.67;;;30.34;33.95
63883;BME280;50047;50.596;30.466;2022-07-01T12:50:27;99421.53;;;30.34;33.89
63883;BME280;50047;50.596;30.466;2022-07-01T12:53:02;99423.92;;;30.36;33.09
63883;BME280;50047;50.596;30.466;2022-07-01T12:55:38;99423.98;;;30.29;33.16
63883;BME280;50047;50.596;30.466;2022-07-01T12:58:08;99415.56;;;30.30;33.11
63883;BME280;50047;50.596;30.466;2022-07-01T13:00:38;99417.39;;;30.31;32.74
63883;BME280;50047;50.596;30.466;2022-07-01T13:03:06;99418.59;;;30.28;32.56
63883;BME280;50047;50.596;30.466;2022-07-01T13:05:35;99421.09;;;30.31;32.73
63883;BME280;50047;50.596;30.466;2022-07-01T13:08:03;99418.55;;;30.30;33.24
63883;BME280;50047;50.596;30.466;2022-07-01T13:10:31;99421.48;;;30.31;32.56
63883;BME280;50047;50.596;30.466;2022-07-01T13:12:59;99418.13;;;30.34;32.59
63883;BME280;50047;50.596;30.466;2022-07-01T13:15:26;99414.83;;;30.40;32.61
63883;BME280;50047;50.596;30.466;2022-07-01T13:17:54;99415.55;;;30.46;32.48
63883;BME280;50047;50.596;30.466;2022-07-01T13:20:21;99419.36;;;30.48;31.53
63883;BME280;50047;50.596;30.466;2022-07-01T13:22:49;99413.41;;;30.49;31.81
63883;BME280;50047;50.596;30.466;2022-07-01T13:25:16;99415.10;;;30.52;32.02
63883;BME280;50047;50.596;30.466;2022-07-01T13:27:44;99415.14;;;30.59;31.97
63883;BME280;50047;50.596;30.466;2022-07-01T13:30:13;99416.73;;;30.56;31.40